Time;durP1;ratioP1;P1;durP2;ratioP2;P2;SDS_P1;SDS_P2;PMS_P1;PMS_P2;Temp;Humidity;BMP_temperature;BMP_pressure;BME280_temperature;BME280_humidity;BME280_pressure;Samples;Min_cycle;Max_cycle;Signal;HPM_P1;HPM_P2
2022/04/15 00:01:15;;;;;;;6.70;5.90;;;12.90;28.80;;;;;;5093430;28;20543;-68
2022/04/15 00:03:40;;;;;;;6.63;6.23;;;12.90;28.80;;;;;;5093394;28;20209;-67
2022/04/15 00:06:08;;;;;;;7.00;6.50;;;12.80;28.70;;;;;;5093240;28;20220;-67
2022/04/15 00:08:35;;;;;;;6.20;5.80;;;12.90;28.80;;;;;;5093050;28;20191;-68
2022/04/15 00:11:01;;;;;;;5.90;5.50;;;12.90;28.80;;;;;;5093155;28;20489;-67
2022/04/15 00:13:29;;;;;;;6.40;5.90;;;12.80;28.70;;;;;;5093157;28;20419;-68
2022/04/15 00:15:55;;;;;;;6.07;5.67;;;12.80;28.70;;;;;;5091786;28;20455;-68
2022/04/15 00:18:21;;;;;;;6.07;5.50;;;12.80;28.70;;;;;;5092750;28;20464;-67
2022/04/15 00:20:46;;;;;;;5.17;4.87;;;12.80;29.10;;;;;;5091771;28;20423;-68
2022/04/15 00:23:12;;;;;;;5.40;5.00;;;12.90;28.80;;;;;;5093571;28;20177;-68
2022/04/15 00:25:37;;;;;;;6.20;5.70;;;12.80;28.70;;;;;;5093977;28;20187;-67
2022/04/15 00:28:03;;;;;;;5.77;5.37;;;12.70;28.80;;;;;;5093502;28;20230;-68
2022/04/15 00:30:29;;;;;;;6.30;5.60;;;12.70;29.20;;;;;;5094090;28;20167;-68
2022/04/15 00:32:54;;;;;;;5.43;5.03;;;12.60;29.30;;;;;;5092372;28;21048;-68
2022/04/15 00:35:20;;;;;;;5.30;4.90;;;12.50;29.40;;;;;;5093134;28;20192;-68
2022/04/15 00:37:47;;;;;;;5.93;5.57;;;12.50;30.00;;;;;;5093625;28;20638;-67
2022/04/15 00:40:12;;;;;;;6.60;4.57;;;12.50;30.00;;;;;;5093980;28;20178;-67
2022/04/15 00:42:38;;;;;;;6.70;5.47;;;12.50;30.00;;;;;;5093457;28;20422;-67
2022/04/15 00:45:04;;;;;;;5.70;5.30;;;12.50;30.30;;;;;;5092878;28;20203;-67
2022/04/15 00:47:47;;;;;;;4.77;4.37;;;12.50;30.20;;;;;;5092454;28;20234;-67
2022/04/15 00:50:14;;;;;;;6.07;5.23;;;12.40;30.40;;;;;;5091289;28;20452;-68
2022/04/15 00:52:44;;;;;;;5.20;4.70;;;12.50;30.50;;;;;;5092360;28;20807;-68
2022/04/15 00:55:10;;;;;;;5.53;5.03;;;12.40;30.10;;;;;;5092410;28;20436;-68
2022/04/15 00:57:39;;;;;;;8.03;6.07;;;12.40;30.40;;;;;;5092869;28;20413;-67
2022/04/15 01:00:07;;;;;;;5.90;4.80;;;12.40;30.10;;;;;;5092646;28;20417;-68
2022/04/15 01:02:33;;;;;;;5.80;5.30;;;12.40;30.10;;;;;;5093557;28;20415;-67
2022/04/15 01:05:02;;;;;;;7.10;5.60;;;12.30;30.40;;;;;;5093121;28;21010;-68
2022/04/15 01:07:34;;;;;;;5.73;5.33;;;12.30;30.60;;;;;;5093001;28;20417;-68
2022/04/15 01:10:02;;;;;;;6.50;5.93;;;12.40;30.10;;;;;;5093422;28;20417;-68
2022/04/15 01:12:31;;;;;;;5.37;4.93;;;12.30;30.00;;;;;;5093025;28;20982;-68
2022/04/15 01:15:03;;;;;;;12.10;5.33;;;12.30;30.50;;;;;;5093106;28;20507;-68
2022/04/15 01:17:29;;;;;;;4.87;4.47;;;12.20;30.10;;;;;;5092917;28;20430;-68
2022/04/15 01:19:55;;;;;;;5.63;5.20;;;12.20;30.50;;;;;;5092284;28;20404;-67
2022/04/15 01:22:24;;;;;;;5.10;4.60;;;12.10;30.60;;;;;;5092315;28;20421;-67
2022/04/15 01:24:50;;;;;;;5.53;5.03;;;12.00;31.10;;;;;;5092351;28;20452;-68
2022/04/15 01:27:44;;;;;;;8.40;5.33;;;12.10;31.00;;;;;;5092248;28;20942;-68
2022/04/15 01:30:12;;;;;;;9.30;6.03;;;12.00;31.20;;;;;;5090473;28;20425;-70
2022/04/15 01:32:37;;;;;;;5.33;4.93;;;12.00;31.40;;;;;;5092095;28;20497;-70
2022/04/15 01:35:06;;;;;;;5.33;4.93;;;12.00;31.00;;;;;;5091930;28;20510;-70
2022/04/15 01:37:31;;;;;;;6.47;5.17;;;11.90;31.40;;;;;;5091575;28;20192;-70
2022/04/15 01:39:57;;;;;;;5.23;4.73;;;11.90;31.80;;;;;;5092039;28;20506;-70
2022/04/15 01:42:23;;;;;;;4.20;3.90;;;11.80;31.50;;;;;;5092104;28;20527;-70
2022/04/15 01:44:49;;;;;;;4.63;4.23;;;11.70;32.10;;;;;;5091902;28;20197;-71
2022/04/15 01:47:16;;;;;;;4.10;3.80;;;11.60;32.30;;;;;;5091724;28;20428;-71
2022/04/15 01:49:42;;;;;;;5.27;4.87;;;11.50;32.50;;;;;;5092270;28;20254;-73
2022/04/15 01:52:08;;;;;;;5.90;5.30;;;11.50;32.70;;;;;;5091663;28;20502;-71
2022/04/15 01:54:34;;;;;;;5.20;4.33;;;11.50;32.50;;;;;;5091740;28;20521;-70
2022/04/15 01:56:59;;;;;;;5.80;4.63;;;11.50;32.30;;;;;;5091608;28;20967;-70
2022/04/15 01:59:25;;;;;;;5.40;4.00;;;11.50;33.10;;;;;;5091651;28;20236;-70
2022/04/15 02:01:54;;;;;;;4.93;4.50;;;11.40;32.50;;;;;;5092006;28;20578;-70
2022/04/15 02:04:27;;;;;;;5.67;4.33;;;11.40;32.80;;;;;;5091700;28;20218;-70
2022/04/15 02:06:53;;;;;;;4.90;4.50;;;11.40;33.00;;;;;;5091192;28;20404;-71
2022/04/15 02:09:19;;;;;;;5.03;4.63;;;11.40;33.00;;;;;;5091643;28;20847;-70
2022/04/15 02:11:45;;;;;;;5.30;4.80;;;11.30;33.30;;;;;;5094501;28;20483;-70
2022/04/15 02:14:12;;;;;;;5.57;4.20;;;11.20;33.40;;;;;;5091121;28;20441;-72
2022/04/15 02:16:38;;;;;;;6.20;4.10;;;11.10;33.80;;;;;;5074607;28;20286;-70
2022/04/15 02:19:04;;;;;;;4.67;4.27;;;11.10;34.00;;;;;;5075658;28;20445;-70
2022/04/15 02:21:29;;;;;;;4.33;4.00;;;11.10;34.40;;;;;;5074955;28;20420;-71
2022/04/15 02:23:55;;;;;;;4.70;4.30;;;11.10;34.60;;;;;;5075192;28;20185;-73
2022/04/15 02:26:20;;;;;;;3.90;3.60;;;11.00;34.80;;;;;;5074906;28;20568;-70
2022/04/15 02:28:46;;;;;;;5.30;4.80;;;11.00;35.30;;;;;;5075127;28;20182;-69
2022/04/15 02:31:11;;;;;;;5.70;3.73;;;11.10;34.90;;;;;;5075379;28;20211;-69
2022/04/15 02:33:37;;;;;;;3.90;3.60;;;11.10;34.30;;;;;;5073943;28;20228;-69
2022/04/15 02:36:03;;;;;;;4.47;4.10;;;11.20;34.50;;;;;;5074845;28;20195;-70
2022/04/15 02:38:28;;;;;;;8.60;5.00;;;11.10;34.50;;;;;;5074709;28;20177;-70
2022/04/15 02:40:54;;;;;;;3.67;3.40;;;11.20;34.70;;;;;;5074833;28;20167;-70
2022/04/15 02:43:20;;;;;;;5.30;4.90;;;11.10;35.00;;;;;;5073667;28;20179;-71
2022/04/15 02:45:46;;;;;;;4.50;4.10;;;11.10;35.20;;;;;;5074863;28;20202;-71
2022/04/15 02:48:12;;;;;;;4.40;4.07;;;11.20;35.00;;;;;;5073442;28;20495;-70
2022/04/15 02:50:39;;;;;;;4.17;3.87;;;11.20;35.10;;;;;;5074950;28;20491;-71
2022/04/15 02:53:05;;;;;;;5.23;4.83;;;11.10;35.10;;;;;;5075037;28;20256;-70
2022/04/15 02:55:31;;;;;;;4.33;3.97;;;11.20;34.40;;;;;;5074470;28;20432;-70
2022/04/15 02:57:56;;;;;;;4.77;4.33;;;11.20;34.70;;;;;;5074316;28;20409;-70
2022/04/15 03:00:22;;;;;;;4.77;4.37;;;11.10;34.50;;;;;;5074571;28;20480;-70
2022/04/15 03:02:47;;;;;;;5.87;5.37;;;11.20;34.50;;;;;;5073187;28;20303;-70
2022/04/15 03:05:13;;;;;;;5.10;4.70;;;11.20;34.10;;;;;;5074241;28;20198;-70
2022/04/15 03:07:40;;;;;;;9.70;5.50;;;11.20;34.10;;;;;;5074269;28;20185;-71
2022/04/15 03:10:06;;;;;;;5.17;4.60;;;11.20;34.90;;;;;;5074482;28;20480;-70
2022/04/15 03:12:36;;;;;;;5.23;4.00;;;11.20;34.00;;;;;;5074172;28;20463;-70
2022/04/15 03:15:04;;;;;;;4.70;4.30;;;11.10;33.40;;;;;;5072773;28;20448;-70
2022/04/15 03:17:30;;;;;;;4.10;3.80;;;11.10;33.90;;;;;;5073842;28;20500;-70
2022/04/15 03:19:55;;;;;;;5.80;5.20;;;11.20;33.60;;;;;;5074546;28;20461;-70
2022/04/15 03:22:21;;;;;;;5.40;4.90;;;11.20;33.70;;;;;;5072115;28;20964;-71
2022/04/15 03:24:48;;;;;;;5.73;4.77;;;11.10;34.10;;;;;;5074262;28;20195;-72
2022/04/15 03:27:14;;;;;;;5.30;4.90;;;11.10;33.40;;;;;;5072736;28;20179;-72
2022/04/15 03:29:40;;;;;;;4.70;4.20;;;11.10;33.50;;;;;;5074546;28;20494;-72
2022/04/15 03:32:05;;;;;;;4.43;4.03;;;11.10;33.60;;;;;;5073779;28;20653;-72
2022/04/15 03:34:32;;;;;;;5.67;4.83;;;11.00;33.70;;;;;;5072492;28;20233;-72
2022/04/15 03:36:58;;;;;;;10.30;5.70;;;11.00;34.00;;;;;;5073824;28;20909;-72
2022/04/15 03:39:23;;;;;;;4.30;3.90;;;11.00;34.20;;;;;;5074467;28;20465;-72
2022/04/15 03:41:49;;;;;;;4.30;3.90;;;10.90;33.80;;;;;;5073742;28;20227;-71
2022/04/15 03:44:14;;;;;;;4.57;4.00;;;10.80;34.10;;;;;;5073617;28;20201;-72
2022/04/15 03:46:40;;;;;;;5.13;4.73;;;10.70;34.50;;;;;;5072093;28;20641;-71
2022/04/15 03:49:06;;;;;;;5.20;4.03;;;10.70;34.80;;;;;;5073440;28;20271;-72
2022/04/15 03:51:32;;;;;;;3.70;3.50;;;10.60;35.20;;;;;;5089003;28;20843;-72
2022/04/15 03:53:57;;;;;;;4.03;3.67;;;10.50;35.60;;;;;;5093900;28;20410;-72
2022/04/15 03:56:23;;;;;;;4.90;4.50;;;10.50;35.80;;;;;;5093074;28;20195;-71
2022/04/15 03:58:48;;;;;;;4.90;4.40;;;10.60;36.60;;;;;;5094803;28;20177;-71
2022/04/15 04:01:14;;;;;;;9.13;5.03;;;10.50;35.70;;;;;;5094864;28;20178;-72
2022/04/15 04:03:39;;;;;;;4.03;3.73;;;10.50;35.80;;;;;;5094184;28;20169;-71
2022/04/15 04:06:05;;;;;;;7.10;4.90;;;10.40;36.10;;;;;;5092011;28;20202;-71
2022/04/15 04:08:30;;;;;;;4.70;4.30;;;10.40;36.10;;;;;;5093293;28;20185;-71
2022/04/15 04:10:56;;;;;;;5.23;4.83;;;10.30;36.40;;;;;;5091787;28;20275;-71
2022/04/15 04:13:22;;;;;;;4.80;4.40;;;10.30;36.40;;;;;;5093195;28;20245;-72
2022/04/15 04:15:48;;;;;;;5.10;4.00;;;10.30;36.40;;;;;;5093176;28;20221;-72
2022/04/15 04:18:14;;;;;;;8.77;6.33;;;10.20;36.30;;;;;;5091827;28;20991;-72
2022/04/15 04:20:40;;;;;;;4.80;4.40;;;10.20;36.50;;;;;;5093455;28;20169;-72
2022/04/15 04:23:06;;;;;;;4.63;4.07;;;10.20;36.30;;;;;;5092363;28;20423;-72
2022/04/15 04:25:31;;;;;;;5.00;4.60;;;10.20;36.50;;;;;;5093292;28;20489;-72
2022/04/15 04:27:57;;;;;;;4.87;4.40;;;10.20;36.30;;;;;;5093092;28;20576;-72
2022/04/15 04:30:23;;;;;;;7.00;5.30;;;10.20;36.30;;;;;;5093238;28;20175;-72
2022/04/15 04:32:52;;;;;;;6.40;4.57;;;10.10;36.20;;;;;;5093037;28;20217;-72
2022/04/15 04:35:19;;;;;;;11.53;4.77;;;10.10;36.40;;;;;;5092139;28;20684;-72
2022/04/15 04:37:45;;;;;;;5.80;4.30;;;10.10;36.90;;;;;;5093283;28;20445;-72
2022/04/15 04:40:11;;;;;;;5.27;4.80;;;10.00;37.00;;;;;;5093250;28;20421;-72
2022/04/15 04:42:38;;;;;;;8.30;4.87;;;10.10;36.80;;;;;;5093046;28;20469;-72
2022/04/15 04:45:04;;;;;;;5.70;5.10;;;10.00;36.90;;;;;;5091363;28;20436;-72
2022/04/15 04:47:30;;;;;;;6.17;5.23;;;10.00;37.20;;;;;;5092576;28;20412;-72
2022/04/15 04:49:56;;;;;;;5.03;4.50;;;10.00;37.90;;;;;;5092766;28;20420;-72
2022/04/15 04:52:23;;;;;;;4.97;4.50;;;10.10;37.60;;;;;;5092659;28;20730;-72
2022/04/15 04:54:49;;;;;;;4.50;3.53;;;10.20;36.80;;;;;;5091386;28;20494;-72
2022/04/15 04:57:14;;;;;;;4.53;4.13;;;10.30;36.70;;;;;;5092317;28;20424;-72
2022/04/15 04:59:40;;;;;;;5.20;4.63;;;10.40;36.60;;;;;;5092432;28;20408;-72
2022/04/15 05:02:06;;;;;;;7.00;4.47;;;10.40;36.50;;;;;;5091099;28;20213;-72
2022/04/15 05:04:32;;;;;;;5.00;4.60;;;10.50;36.40;;;;;;5092470;28;20323;-72
2022/04/15 05:06:58;;;;;;;3.90;3.60;;;10.60;35.50;;;;;;5092159;28;20970;-72
2022/04/15 05:09:23;;;;;;;6.00;5.03;;;10.60;34.90;;;;;;5092382;28;20190;-71
2022/04/15 05:11:51;;;;;;;4.47;4.07;;;10.70;35.00;;;;;;5092488;28;20207;-72
2022/04/15 05:14:17;;;;;;;11.00;5.07;;;10.70;34.90;;;;;;5091987;28;20175;-72
2022/04/15 05:16:43;;;;;;;5.10;4.60;;;10.80;34.30;;;;;;5112894;22;20492;-71
2022/04/15 05:19:08;;;;;;;6.17;5.67;;;10.90;33.30;;;;;;5092348;28;20459;-71
2022/04/15 05:21:35;;;;;;;12.23;5.83;;;11.10;33.30;;;;;;5092044;28;20177;-71
2022/04/15 05:24:01;;;;;;;6.63;5.10;;;11.10;32.50;;;;;;5092086;28;20257;-71
2022/04/15 05:26:29;;;;;;;6.87;6.23;;;11.30;32.10;;;;;;5090752;28;20442;-72
2022/04/15 05:28:54;;;;;;;6.73;5.00;;;11.50;32.30;;;;;;5091948;28;20407;-72
2022/04/15 05:31:20;;;;;;;6.30;4.93;;;11.60;31.30;;;;;;5091966;28;20463;-72
2022/04/15 05:33:45;;;;;;;5.20;4.80;;;11.80;31.20;;;;;;5092043;28;20177;-72
2022/04/15 05:36:11;;;;;;;6.47;5.97;;;11.90;30.40;;;;;;5092017;28;20660;-72
2022/04/15 05:38:36;;;;;;;6.00;5.60;;;12.10;29.90;;;;;;5091506;28;20172;-71
2022/04/15 05:41:02;;;;;;;5.93;5.53;;;12.20;29.60;;;;;;5092241;28;20204;-72
2022/04/15 05:43:28;;;;;;;7.20;6.30;;;12.40;29.10;;;;;;5092115;28;20258;-71
2022/04/15 05:45:55;;;;;;;6.30;5.70;;;;;;;;;;5093694;28;20487;-71
2022/04/15 05:48:20;;;;;;;7.47;7.07;;;12.90;28.00;;;;;;5096461;28;20189;-71
2022/04/15 05:50:46;;;;;;;8.33;6.63;;;13.20;27.30;;;;;;5096543;28;20450;-71
2022/04/15 05:53:13;;;;;;;7.40;6.90;;;13.60;26.40;;;;;;5096665;28;20570;-72
2022/04/15 05:55:39;;;;;;;9.83;8.27;;;14.00;26.60;;;;;;5091656;28;20197;-71
2022/04/15 05:58:05;;;;;;;8.03;7.63;;;14.30;25.30;;;;;;5095276;28;20421;-71
2022/04/15 06:00:31;;;;;;;7.43;7.13;;;14.40;23.90;;;;;;5090833;28;20181;-72
2022/04/15 06:02:56;;;;;;;9.13;8.50;;;14.50;24.30;;;;;;5074744;28;20428;-72
2022/04/15 06:05:24;;;;;;;8.73;8.13;;;14.50;24.00;;;;;;5076071;28;20219;-72
2022/04/15 06:07:50;;;;;;;10.60;9.73;;;14.50;24.20;;;;;;5075793;28;20170;-72
2022/04/15 06:10:16;;;;;;;9.13;8.60;;;14.50;23.80;;;;;;5074664;28;20440;-73
2022/04/15 06:15:31;;;;;;;9.97;9.40;;;14.40;24.20;;;;;;5097482;28;20246;-71
2022/04/15 06:17:58;;;;;;;8.13;7.47;;;14.40;24.10;;;;;;5095743;28;20508;-72
2022/04/15 06:20:24;;;;;;;8.73;8.23;;;14.40;24.30;;;;;;5094968;28;20495;-72
2022/04/15 06:22:50;;;;;;;8.60;8.10;;;14.40;24.50;;;;;;5094740;28;20410;-72
2022/04/15 06:25:16;;;;;;;9.13;8.63;;;14.60;24.60;;;;;;5094534;28;20449;-71
2022/04/15 06:27:41;;;;;;;9.80;9.30;;;14.70;24.40;;;;;;5095819;28;20226;-71
2022/04/15 06:30:08;;;;;;;9.03;8.43;;;14.90;24.10;;;;;;5095539;28;20432;-71
2022/04/15 06:32:37;;;;;;;9.47;8.87;;;15.20;24.50;;;;;;5094143;28;20597;-72
2022/04/15 06:35:06;;;;;;;9.10;8.60;;;15.50;23.50;;;;;;5095309;28;20422;-71
2022/04/15 06:37:32;;;;;;;9.90;9.40;;;16.00;23.50;;;;;;5093712;28;20411;-74
2022/04/15 06:39:58;;;;;;;9.80;9.17;;;16.50;22.40;;;;;;5094952;28;20416;-72
2022/04/15 06:42:24;;;;;;;9.73;9.23;;;17.10;21.60;;;;;;5095042;28;20181;-72
2022/04/15 06:44:50;;;;;;;11.43;10.93;;;17.90;21.60;;;;;;5094987;28;20169;-72
2022/04/15 06:47:16;;;;;;;11.83;11.23;;;18.80;19.10;;;;;;5094820;28;20411;-73
2022/04/15 06:49:42;;;;;;;12.10;11.60;;;19.60;17.90;;;;;;5084442;28;20774;-73
2022/04/15 06:52:08;;;;;;;13.97;13.37;;;20.30;16.80;;;;;;5073154;28;20197;-72
2022/04/15 06:54:34;;;;;;;13.90;13.10;;;20.80;14.30;;;;;;5092784;28;20442;-72
2022/04/15 06:57:00;;;;;;;14.93;14.13;;;21.30;14.20;;;;;;5093228;28;20165;-72
2022/04/15 06:59:25;;;;;;;14.97;14.20;;;21.70;12.20;;;;;;5094596;28;20451;-72
2022/04/15 07:01:51;;;;;;;14.17;13.37;;;22.20;11.60;;;;;;5094616;28;20272;-73
2022/04/15 07:04:16;;;;;;;14.13;13.50;;;22.60;13.00;;;;;;5094768;28;20253;-71
2022/04/15 07:06:43;;;;;;;13.63;13.03;;;22.90;11.80;;;;;;5094293;28;20460;-71
2022/04/15 07:09:08;;;;;;;14.80;14.10;;;23.20;11.40;;;;;;5094598;28;20248;-72
2022/04/15 07:11:34;;;;;;;15.10;14.30;;;23.70;10.10;;;;;;5104533;28;20553;-71
2022/04/15 07:13:59;;;;;;;14.83;14.13;;;24.00;10.30;;;;;;5094065;28;20173;-73
2022/04/15 07:16:25;;;;;;;16.50;15.50;;;24.30;10.50;;;;;;5094716;28;20231;-72
2022/04/15 07:18:52;;;;;;;15.43;14.63;;;;;;;;;;5096279;28;20234;-72
2022/04/15 07:21:18;;;;;;;15.30;14.60;;;24.60;8.60;;;;;;5109579;28;20181;-72
2022/04/15 07:23:45;;;;;;;16.90;14.53;;;24.40;8.80;;;;;;5095429;28;20565;-72
2022/04/15 07:26:10;;;;;;;14.13;13.37;;;24.50;9.40;;;;;;5095886;28;20438;-72
2022/04/15 07:28:36;;;;;;;15.57;14.67;;;24.70;9.10;;;;;;5094708;28;20419;-72
2022/04/15 07:31:01;;;;;;;15.53;14.57;;;24.20;8.30;;;;;;5093705;28;20513;-72
2022/04/15 07:33:27;;;;;;;15.70;15.00;;;24.40;9.50;;;;;;5094952;28;20181;-72
2022/04/15 07:35:53;;;;;;;16.33;15.47;;;24.60;8.60;;;;;;5095067;28;20189;-72
2022/04/15 07:38:18;;;;;;;15.27;14.43;;;24.60;8.20;;;;;;5093559;28;20177;-72
2022/04/15 07:40:44;;;;;;;16.00;15.20;;;24.70;8.40;;;;;;5091686;28;20174;-71
2022/04/15 07:43:14;;;;;;;14.20;13.60;;;24.90;8.10;;;;;;5093191;28;20181;-71
2022/04/15 07:45:41;;;;;;;15.10;14.40;;;24.90;8.00;;;;;;5076457;28;20263;-73
2022/04/15 07:48:07;;;;;;;16.27;15.27;;;25.20;7.60;;;;;;5074340;28;20766;-71
2022/04/15 07:50:33;;;;;;;15.97;14.93;;;25.10;6.70;;;;;;5082719;28;20431;-72
2022/04/15 07:52:59;;;;;;;16.10;15.30;;;25.30;6.40;;;;;;5069777;28;20201;-72
2022/04/15 07:55:26;;;;;;;16.60;15.90;;;25.50;6.60;;;;;;5082074;28;20289;-71
2022/04/15 07:57:53;;;;;;;15.00;14.40;;;25.60;6.40;;;;;;5088114;28;20545;-74
2022/04/15 08:00:20;;;;;;;15.27;14.40;;;25.80;6.40;;;;;;5086043;28;20435;-71
2022/04/15 08:02:46;;;;;;;15.40;14.70;;;25.90;6.80;;;;;;5089146;28;20422;-72
2022/04/15 08:05:13;;;;;;;17.70;16.77;;;25.70;6.40;;;;;;5088287;28;20829;-71
2022/04/15 08:07:38;;;;;;;18.13;17.10;;;24.00;6.00;;;;;;5089215;28;20300;-71
2022/04/15 08:10:06;;;;;;;16.03;15.20;;;22.40;9.20;;;;;;5088610;28;20518;-71
2022/04/15 08:12:32;;;;;;;17.30;16.13;;;23.00;9.60;;;;;;5088337;28;20274;-71
2022/04/15 08:14:57;;;;;;;17.40;16.40;;;23.50;9.10;;;;;;5088754;28;20455;-71
2022/04/15 08:17:23;;;;;;;18.07;17.00;;;23.90;7.30;;;;;;5068696;28;20194;-71
2022/04/15 08:19:48;;;;;;;17.53;16.40;;;23.10;7.30;;;;;;5079896;28;20209;-72
2022/04/15 08:22:14;;;;;;;16.77;15.87;;;23.10;8.90;;;;;;5084335;28;20189;-73
2022/04/15 08:24:42;;;;;;;16.37;15.40;;;23.00;8.40;;;;;;5088887;28;20468;-73
2022/04/15 08:27:11;;;;;;;16.33;15.43;;;23.20;8.20;;;;;;5090408;28;20195;-73
2022/04/15 08:29:39;;;;;;;15.67;14.97;;;22.90;9.10;;;;;;5087983;28;20935;-73
2022/04/15 08:32:08;;;;;;;16.87;15.70;;;23.00;9.60;;;;;;5090051;28;20535;-72
2022/04/15 08:34:37;;;;;;;18.10;17.10;;;22.50;9.30;;;;;;5088408;28;20426;-72
2022/04/15 08:37:03;;;;;;;19.17;18.03;;;22.30;9.20;;;;;;5087819;28;20411;-72
2022/04/15 08:39:29;;;;;;;16.63;15.63;;;21.50;8.60;;;;;;5088829;28;20522;-73
2022/04/15 08:41:58;;;;;;;19.73;18.53;;;20.20;11.10;;;;;;5088869;28;20521;-72
2022/04/15 08:44:24;;;;;;;19.53;18.40;;;20.10;10.70;;;;;;5087091;28;20195;-72
2022/04/15 08:46:51;;;;;;;19.33;17.57;;;20.00;11.10;;;;;;5088270;28;20492;-72
2022/04/15 08:49:19;;;;;;;19.33;17.90;;;20.00;10.90;;;;;;5089887;28;20600;-72
2022/04/15 08:51:48;;;;;;;18.73;17.17;;;19.80;11.90;;;;;;5088565;28;21050;-73
2022/04/15 08:54:13;;;;;;;16.70;15.67;;;19.10;11.50;;;;;;5088400;28;20411;-72
2022/04/15 08:56:39;;;;;;;15.77;14.80;;;19.00;12.70;;;;;;5088614;28;20442;-72
2022/04/15 08:59:05;;;;;;;18.80;17.50;;;18.80;12.90;;;;;;5080477;28;20805;-71
2022/04/15 09:01:31;;;;;;;16.90;15.53;;;18.70;12.90;;;;;;5066903;28;20456;-72
2022/04/15 09:03:57;;;;;;;15.03;14.03;;;18.80;13.30;;;;;;5081520;28;20193;-70
2022/04/15 09:06:29;;;;;;;16.00;15.00;;;18.60;12.80;;;;;;5088228;28;20282;-71
2022/04/15 09:09:04;;;;;;;15.20;14.20;;;18.90;12.80;;;;;;5088748;28;20419;-71
2022/04/15 09:11:34;;;;;;;16.47;15.20;;;19.20;12.60;;;;;;5086798;28;20541;-71
2022/04/15 09:14:03;;;;;;;14.83;14.07;;;19.40;11.70;;;;;;5087732;28;20435;-71
2022/04/15 09:16:30;;;;;;;16.53;15.53;;;19.70;11.90;;;;;;5088343;28;20826;-72
2022/04/15 09:18:56;;;;;;;17.53;16.40;;;19.70;11.50;;;;;;5088285;28;20465;-71
2022/04/15 09:21:24;;;;;;;16.87;15.67;;;19.80;11.90;;;;;;5087280;28;20794;-72
2022/04/15 09:23:54;;;;;;;16.77;15.47;;;19.40;11.00;;;;;;5088550;28;20435;-72
2022/04/15 09:26:22;;;;;;;17.40;16.40;;;19.70;10.90;;;;;;5088602;28;20457;-72
2022/04/15 09:28:48;;;;;;;17.43;16.27;;;19.40;10.00;;;;;;5088853;28;20426;-72
2022/04/15 09:31:15;;;;;;;19.20;17.73;;;18.70;12.20;;;;;;5087811;28;20427;-72
2022/04/15 09:33:53;;;;;;;17.60;16.50;;;18.90;12.10;;;;;;5089310;28;20458;-72
2022/04/15 09:36:27;;;;;;;19.10;17.90;;;19.30;11.90;;;;;;5087974;28;20431;-72
2022/04/15 09:38:59;;;;;;;16.83;15.70;;;19.60;10.40;;;;;;5067016;28;20519;-72
2022/04/15 09:41:27;;;;;;;16.53;15.40;;;19.70;10.60;;;;;;5070115;28;20420;-71
2022/04/15 09:43:59;;;;;;;16.53;15.50;;;20.00;10.50;;;;;;5073440;28;20531;-71
2022/04/15 09:46:27;;;;;;;14.73;13.93;;;20.20;10.00;;;;;;5070698;28;20455;-71
2022/04/15 09:49:04;;;;;;;16.97;15.80;;;20.20;10.60;;;;;;5088927;28;20434;-71
2022/04/15 09:51:33;;;;;;;16.80;15.77;;;20.50;10.60;;;;;;5084352;28;20452;-71
2022/04/15 09:54:01;;;;;;;15.20;14.40;;;20.60;10.10;;;;;;5089129;28;20423;-70
2022/04/15 09:56:30;;;;;;;15.00;14.30;;;20.90;9.70;;;;;;5075899;28;20998;-70
2022/04/15 09:59:01;;;;;;;16.43;15.43;;;21.10;10.00;;;;;;5072014;28;20439;-70
2022/04/15 10:01:30;;;;;;;18.00;16.90;;;21.50;9.90;;;;;;5078326;28;20444;-70
2022/04/15 10:03:56;;;;;;;16.27;15.30;;;21.50;8.80;;;;;;5091299;28;20435;-70
2022/04/15 10:06:22;;;;;;;16.60;15.47;;;21.60;9.30;;;;;;5091198;28;20468;-74
2022/04/15 10:08:48;;;;;;;17.13;15.90;;;21.80;8.80;;;;;;5091518;28;20422;-71
2022/04/15 10:11:15;;;;;;;15.70;14.50;;;22.00;9.00;;;;;;5091741;28;20415;-70
2022/04/15 10:13:44;;;;;;;16.60;15.70;;;21.60;8.70;;;;;;5083455;28;20635;-71
2022/04/15 10:16:10;;;;;;;19.03;17.30;;;21.50;7.90;;;;;;5073013;28;20842;-71
2022/04/15 10:18:36;;;;;;;17.13;15.90;;;21.00;8.60;;;;;;5091311;28;20431;-71
2022/04/15 10:21:03;;;;;;;15.90;15.10;;;20.80;9.30;;;;;;5091609;28;20923;-72
2022/04/15 10:23:30;;;;;;;17.00;16.20;;;21.30;8.90;;;;;;5091346;28;20419;-74
2022/04/15 10:25:59;;;;;;;16.30;15.40;;;20.70;8.50;;;;;;5092259;28;20443;-76
2022/04/15 10:28:42;;;;;;;16.30;15.23;;;20.60;9.00;;;;;;5093366;28;20499;-72
2022/04/15 10:31:11;;;;;;;16.53;15.53;;;21.10;9.70;;;;;;5091219;28;20426;-72
2022/04/15 10:33:41;;;;;;;14.83;14.13;;;21.50;8.60;;;;;;5095334;28;20453;-72
2022/04/15 10:36:14;;;;;;;18.70;16.30;;;21.90;8.30;;;;;;5093404;28;20439;-75
2022/04/15 10:39:22;;;;;;;15.83;15.03;;;22.20;7.60;;;;;;5094442;28;20422;-73
2022/04/15 10:41:51;;;;;;;16.87;15.87;;;22.20;7.80;;;;;;5032485;28;20418;-73
2022/04/15 10:44:28;;;;;;;16.43;15.63;;;22.30;7.60;;;;;;5015778;28;20433;-73
2022/04/15 10:47:28;;;;;;;18.00;16.90;;;21.20;8.10;;;;;;5068837;28;20450;-73
2022/04/15 10:50:03;;;;;;;17.10;16.07;;;21.20;8.40;;;;;;5090390;28;20896;-74
2022/04/15 10:52:31;;;;;;;16.00;15.20;;;21.40;8.50;;;;;;5088414;28;20618;-74
2022/04/15 10:55:02;;;;;;;17.13;16.17;;;20.60;9.50;;;;;;5095557;28;20443;-75
2022/04/15 10:57:31;;;;;;;16.70;15.80;;;20.30;9.80;;;;;;5094099;28;20411;-75
2022/04/15 11:02:45;;;;;;;15.67;14.80;;;20.30;9.20;;;;;;5094882;28;20446;-75
2022/04/15 11:05:42;;;;;;;19.20;18.00;;;20.00;10.00;;;;;;5093009;28;20967;-75
2022/04/15 11:08:15;;;;;;;16.93;15.63;;;18.80;9.40;;;;;;5074382;28;20450;-75
2022/04/15 11:10:49;;;;;;;18.43;17.30;;;19.20;9.70;;;;;;5074343;28;20412;-75
2022/04/15 11:13:24;;;;;;;17.13;16.13;;;18.90;10.50;;;;;;5093674;28;20990;-73
2022/04/15 11:16:01;;;;;;;18.10;17.00;;;19.10;10.70;;;;;;5094589;28;20489;-74
2022/04/15 11:19:06;;;;;;;16.80;15.90;;;19.40;10.00;;;;;;5093425;28;20419;-70
2022/04/15 11:21:35;;;;;;;17.03;16.10;;;19.80;9.20;;;;;;5011170;28;20438;-69
2022/04/15 11:24:10;;;;;;;18.90;17.90;;;19.80;9.40;;;;;;4995655;28;20431;-70
2022/04/15 11:26:45;;;;;;;18.20;17.10;;;19.90;8.20;;;;;;5046174;28;20467;-69
2022/04/15 11:29:12;;;;;;;16.70;15.80;;;19.80;9.20;;;;;;5074041;28;20465;-69
2022/04/15 11:31:39;;;;;;;17.30;16.50;;;20.00;9.30;;;;;;5083381;28;20510;-69
2022/04/15 11:34:16;;;;;;;17.33;16.50;;;19.80;8.80;;;;;;5094180;28;20415;-69
2022/04/15 11:36:47;;;;;;;19.43;18.23;;;19.60;9.40;;;;;;5093643;28;20443;-69
2022/04/15 11:39:24;;;;;;;17.87;16.97;;;19.30;10.10;;;;;;5094320;28;20427;-69
2022/04/15 11:41:50;;;;;;;17.57;16.73;;;19.30;10.20;;;;;;5094316;28;20924;-69
2022/04/15 11:44:17;;;;;;;19.70;17.93;;;19.40;10.30;;;;;;5103243;28;20494;-69
2022/04/15 11:46:51;;;;;;;19.20;17.83;;;19.80;9.80;;;;;;5099604;28;20443;-69
2022/04/15 11:49:22;;;;;;;19.67;18.57;;;20.00;8.70;;;;;;5094200;28;20411;-69
2022/04/15 11:51:48;;;;;;;18.37;17.37;;;19.60;9.00;;;;;;5093680;28;20451;-69
2022/04/15 11:54:14;;;;;;;19.67;18.30;;;19.50;9.20;;;;;;5094072;28;20407;-69
2022/04/15 11:56:42;;;;;;;17.20;16.30;;;19.60;8.40;;;;;;5093875;28;20442;-68
2022/04/15 11:59:09;;;;;;;18.37;17.37;;;19.60;8.50;;;;;;5092986;28;20429;-69
2022/04/15 12:01:36;;;;;;;18.53;17.43;;;19.50;8.80;;;;;;5094004;28;20426;-69
2022/04/15 12:04:02;;;;;;;17.70;16.60;;;19.70;7.40;;;;;;5093536;28;20427;-69
2022/04/15 12:06:31;;;;;;;17.10;16.20;;;20.20;7.70;;;;;;5093360;28;20477;-68
2022/04/15 12:08:57;;;;;;;17.87;16.80;;;20.60;8.00;;;;;;5093817;28;20411;-69
2022/04/15 12:11:25;;;;;;;16.03;15.33;;;21.00;6.40;;;;;;5093469;28;20439;-68
2022/04/15 12:14:02;;;;;;;16.63;15.80;;;21.30;6.30;;;;;;5093828;28;20884;-70
2022/04/15 12:16:31;;;;;;;18.37;17.37;;;21.40;5.80;;;;;;5093003;28;20443;-73
2022/04/15 12:18:58;;;;;;;17.07;16.17;;;20.90;5.80;;;;;;5093576;28;20424;-73
2022/04/15 12:21:25;;;;;;;18.10;17.10;;;20.40;6.30;;;;;;5090947;28;20424;-73
2022/04/15 12:24:01;;;;;;;18.67;17.70;;;20.30;7.40;;;;;;5093403;28;20429;-73
2022/04/15 12:26:27;;;;;;;17.00;16.10;;;20.00;7.60;;;;;;5091758;28;20870;-73
2022/04/15 12:31:46;;;;;;;16.03;14.80;;;19.30;7.70;;;;;;5078467;28;20199;-73
2022/04/15 12:34:12;;;;;;;17.13;16.23;;;18.90;8.10;;;;;;5091575;28;20916;-72
2022/04/15 12:36:43;;;;;;;16.37;15.57;;;19.00;7.50;;;;;;5092410;28;20427;-73
2022/04/15 12:39:09;;;;;;;17.03;15.97;;;19.20;7.50;;;;;;5093378;28;20209;-72
2022/04/15 12:41:48;;;;;;;15.97;15.10;;;19.40;7.10;;;;;;5091226;28;20430;-72
2022/04/15 12:44:23;;;;;;;15.67;14.87;;;19.70;7.40;;;;;;5108004;28;20514;-72
2022/04/15 12:46:57;;;;;;;16.43;15.63;;;19.90;7.50;;;;;;5091575;28;20447;-71
2022/04/15 12:49:24;;;;;;;15.67;14.87;;;19.80;7.40;;;;;;5092741;28;20469;-70
2022/04/15 12:51:49;;;;;;;16.30;15.50;;;19.80;7.10;;;;;;5093084;28;20446;-72